LLSD/SDV METAR and TAF weather

Enter ICAO airport designator
Station Type Date Time Source
LLSD METAR 2019/04/19 09:50 UTC NOAA

LLSD 190950Z 24016KT 9999 SCT040 20/10 Q1016


Station Type Date Time Source
LLSD Decoded METAR 2019/04/19 09:50 UTC NOAA

Tel Aviv / Sde-Dov Airport, Israel (LLSD) 32-06-53N 034-46-56E
Apr 19, 2019 - 05:50 AM EDT / 2019.04.19 0950 UTC
Wind: from the WSW (240 degrees) at 18 MPH (16 KT):0
Visibility: greater than 7 mile(s):0
Sky conditions: partly cloudy
Temperature: 68 F (20 C)
Dew Point: 50 F (10 C)
Relative Humidity: 52%
Pressure (altimeter): 30.00 in. Hg (1016 hPa)
ob: LLSD 190950Z 24016KT 9999 SCT040 20/10 Q1016
cycle: 10

Station Type Date Time Source
LLSD TAF 2019/04/19 06:18 UTC NOAA

TAF LLSD 190511Z 1906/2006 20010KT 9999 SCT035
TEMPO 1906/1909 -RA BKN025
FM190900 26016KT 9999 SCT035
BECMG 1918/1920 23010KT TX19/1912Z TN15/2004Z

Example: see airport list